Aeroporto :
LOGIN :

Iscrizione | Disclaimer

   EN    FR    IT 

 










Sommario :    VFR   VFR Marginale   IFR   IFR Intensivo   IFR Molto Intensivo
Visibilità : 
Base nubi : 
>= 8 km
>= 3000ft
5 / 8 km
1000 / 3000 ft
1500m / 5 km
500 / 1000 ft
800 / 1500m
200 / 500 ft
< 800m
< 200 ft
Simboli :   Temporali  Nebbia  Neve Forte  Precipitazioni Forti  Vento > 20 kt
SIGMETs :   Varie  Temporali  Ghiacco  Turbolenza  Onda orograficha  Ceneri Vulcaniche






- Altitudine del aeroporto : 481 ft
- Codice IATA : DNK


UKDD - Dnipropetrovs'k

ULTIMO METAR :
  • 020200Z 27002MPS 5000 BR BKN029 10/09 Q1006 R26/210370 NOSIG

METARs OBSOLETI :
  • 020100Z 27002MPS 9999 BKN020 11/09 Q1006 R26/210370 NOSIG
  • 020000Z 00000MPS 9999 BKN016 11/10 Q1006 R26/210370 NOSIG

TAF TAF UKDD
Valido dal 02 a 00 ore il 03 a 00 ore UTC


012306Z 0200/0224 28004MPS 9999 BKN015
TEMPO 0200/0206 1100 -SHRA BR BKN004 BKN015CB
BECMG 0216/0218 VRB01MPS
FIR UKDV / Europa



MetMap, La meteo Aeronautica in un colpo d'occhio ! - Copyright ORBIFLY Dicembre 2007 - Disclaimer

ORBIFLY MET'MAP TEAM :

Programmazione e sviluppo : Alexandra Zaïnal
Concezione : Baudouin d'Aumeries
Aiuto per la programmazione : Marc-Olivier Méhu
Supporto tecnico e logistico : Manuel Goepfert
Aiuto per la traduzione : Arnaldo La Scala

Contatto : metmap@orbifly.com




FONTI E CREDITI :

   NOAA